CheckWX is a tool to help pilots better visualize weather data.  It is not intended as a substitute for an official pre-flight weather briefing.

13:17:09 UTC

DNMN TAF
Minna Airport
Minna, Nigeria
TAF DNMN 181100Z 1812/1918 22011KT 9999 BKN010 TEMPO 1815/1820 5000 -TSRA BKN008 FEW018CB BECMG 1820/1822 15004KT FEW008

Aug-18@
12:00 UTC

Aug-18 @ 12:00 UTC

Aug-18@
20:00 UTC

Aug-18 @ 20:00 UTC

TAF DNMN 181100Z 1812/1918 22011KT 9999 BKN010
Wind
  • 220° at 11 KTS
Cloud Levels
  • Broken at 1,000' AGL

Aug-18@
15:00 UTC

Aug-18 @ 15:00 UTC

Aug-18@
20:00 UTC

Aug-18 @ 20:00 UTC

TEMPO 1815/1820 5000 -TSRA BKN008 FEW018CB

Temporary

Temporary Changes expected for less than half the time period

Conditions
Light Thunderstorm, Light Rain
Cloud Levels
  • Broken at 800' AGL
  • Few at 1,800' AGL

Aug-18@
20:00 UTC

Aug-18 @ 20:00 UTC

Aug-19@
18:00 UTC

Aug-19 @ 18:00 UTC

BECMG 1820/1822 15004KT FEW008

Becoming

Becoming Conditions expected by Sun, Aug 18, 2019 @ 22:00 UTC

Wind
  • 150° at 4 KTS
Cloud Levels
  • Few at 800' AGL